Time;durP1;ratioP1;P1;durP2;ratioP2;P2;SDS_P1;SDS_P2;PMS_P1;PMS_P2;Temp;Humidity;BMP_temperature;BMP_pressure;BME280_temperature;BME280_humidity;BME280_pressure;Samples;Min_cycle;Max_cycle;Signal;HPM_P1;HPM_P2
2022/08/20 00:01:24;;;;;;;2.13;1.50;;;;;;;21.42;100.00;100176.44;4888931;29;20268;-73
2022/08/20 00:03:50;;;;;;;1.70;1.60;;;;;;;21.40;100.00;100178.28;4891036;29;20212;-71
2022/08/20 00:06:19;;;;;;;1.67;1.57;;;;;;;21.38;100.00;100177.53;4888067;29;20296;-71
2022/08/20 00:08:45;;;;;;;1.67;1.57;;;;;;;21.38;100.00;100180.16;4889647;29;20197;-72
2022/08/20 00:11:14;;;;;;;2.17;1.90;;;;;;;21.37;100.00;100175.00;4889910;29;20260;-74
2022/08/20 00:13:47;;;;;;;1.63;1.53;;;;;;;21.38;100.00;100176.69;4890035;29;20268;-74
2022/08/20 00:16:14;;;;;;;1.67;1.57;;;;;;;21.40;100.00;100174.81;4891050;29;20423;-72
2022/08/20 00:18:41;;;;;;;1.67;1.57;;;;;;;21.41;100.00;100179.13;4889186;29;20197;-74
2022/08/20 00:21:10;;;;;;;2.73;1.93;;;;;;;21.45;100.00;100185.91;4890083;29;20285;-72
2022/08/20 00:23:38;;;;;;;2.00;1.90;;;;;;;21.46;100.00;100188.50;4889876;29;20276;-73
2022/08/20 00:26:05;;;;;;;2.53;1.63;;;;;;;21.47;100.00;100189.31;4888826;29;20213;-74
2022/08/20 00:28:30;;;;;;;2.80;1.73;;;;;;;21.50;100.00;100188.28;4892826;29;20197;-72
2022/08/20 00:30:56;;;;;;;1.90;1.80;;;;;;;21.53;100.00;100189.00;4889921;29;20279;-72
2022/08/20 00:33:23;;;;;;;2.17;1.90;;;;;;;21.58;100.00;100186.94;4890528;29;20192;-72
2022/08/20 00:35:52;;;;;;;1.80;1.70;;;;;;;21.58;100.00;100186.94;4888686;29;20283;-73
2022/08/20 00:38:18;;;;;;;1.70;1.60;;;;;;;21.60;100.00;100184.25;4904420;29;20192;-75
2022/08/20 00:40:50;;;;;;;1.97;1.77;;;;;;;21.63;100.00;100181.41;4892128;29;20259;-75
2022/08/20 00:43:33;;;;;;;1.80;1.70;;;;;;;21.61;100.00;100186.78;4893513;29;20193;-74
2022/08/20 00:46:02;;;;;;;1.80;1.70;;;;;;;21.60;100.00;100190.34;4908313;29;20728;-74
2022/08/20 00:48:30;;;;;;;1.90;1.80;;;;;;;21.61;100.00;100191.22;4893758;29;20199;-73
2022/08/20 00:51:13;;;;;;;1.90;1.80;;;;;;;21.59;100.00;100196.53;4891405;29;20208;-73
2022/08/20 00:53:40;;;;;;;1.60;1.50;;;;;;;21.58;100.00;100197.47;4891547;29;20197;-77
2022/08/20 00:56:08;;;;;;;2.13;2.03;;;;;;;21.58;100.00;100200.09;4895396;29;20232;-72
2022/08/20 00:58:36;;;;;;;2.00;1.90;;;;;;;21.60;100.00;100202.69;4893377;29;20201;-73
2022/08/20 01:01:03;;;;;;;2.00;1.90;;;;;;;21.59;100.00;100204.41;4894344;29;20207;-74
2022/08/20 01:03:29;;;;;;;2.20;2.00;;;;;;;21.57;100.00;100201.03;4898260;29;20273;-72
2022/08/20 01:05:54;;;;;;;2.33;1.80;;;;;;;21.56;100.00;100204.59;4894753;29;20971;-72
2022/08/20 01:08:23;;;;;;;3.10;1.90;;;;;;;21.55;100.00;100199.44;4909783;29;20208;-74
2022/08/20 01:10:52;;;;;;;2.27;2.13;;;;;;;21.55;100.00;100208.19;4891091;29;20193;-72
2022/08/20 01:13:23;;;;;;;1.83;1.73;;;;;;;21.54;100.00;100210.88;4906305;29;20337;-73
2022/08/20 01:15:52;;;;;;;1.80;1.70;;;;;;;21.54;100.00;100206.50;4905892;29;20208;-73
2022/08/20 01:18:23;;;;;;;2.40;2.20;;;;;;;21.52;100.00;100205.72;4909857;29;20287;-74
2022/08/20 01:20:53;;;;;;;1.83;1.73;;;;;;;21.50;100.00;100204.97;4891455;29;20189;-72
2022/08/20 01:23:33;;;;;;;2.07;1.83;;;;;;;21.48;100.00;100201.56;4907675;29;20225;-72
2022/08/20 01:26:07;;;;;;;2.53;1.90;;;;;;;21.45;100.00;100206.97;4891086;29;20680;-73
2022/08/20 01:28:38;;;;;;;2.20;2.10;;;;;;;21.41;100.00;100197.56;4891985;29;20200;-74
2022/08/20 01:31:07;;;;;;;2.07;1.97;;;;;;;21.40;100.00;100211.69;4891363;29;20283;-72
2022/08/20 01:33:32;;;;;;;2.20;2.00;;;;;;;21.39;100.00;100202.09;4909575;29;20211;-73
2022/08/20 01:35:59;;;;;;;2.10;1.90;;;;;;;21.39;100.00;100209.97;4893085;29;20612;-72
2022/08/20 01:38:26;;;;;;;2.60;2.10;;;;;;;21.40;100.00;100204.63;4893559;29;20629;-75
2022/08/20 01:41:06;;;;;;;2.67;2.47;;;;;;;21.42;100.00;100207.16;4901762;29;20197;-72
2022/08/20 01:43:32;;;;;;;2.33;2.23;;;;;;;21.41;100.00;100213.34;4891965;29;20200;-73
2022/08/20 01:45:58;;;;;;;2.50;2.30;;;;;;;21.42;100.00;100223.81;4897172;29;20209;-73
2022/08/20 01:48:24;;;;;;;2.50;2.33;;;;;;;21.44;100.00;100221.94;4894110;29;20230;-73
2022/08/20 01:51:00;;;;;;;2.60;2.40;;;;;;;21.47;100.00;100229.69;4895715;29;20220;-76
2022/08/20 01:53:34;;;;;;;2.87;2.37;;;;;;;21.50;100.00;100233.06;4890454;29;20189;-72
2022/08/20 01:56:01;;;;;;;2.70;2.50;;;;;;;21.50;100.00;100239.19;4894645;29;20215;-75
2022/08/20 01:58:28;;;;;;;2.60;2.40;;;;;;;21.50;100.00;100236.53;4894219;29;20200;-74
2022/08/20 02:00:55;;;;;;;2.93;2.67;;;;;;;21.54;100.00;100235.44;4891417;29;20674;-73
2022/08/20 02:03:20;;;;;;;2.67;2.47;;;;;;;21.53;100.00;100236.38;4892920;29;20185;-72
2022/08/20 02:05:46;;;;;;;3.10;2.90;;;;;;;21.53;100.00;100233.75;4894105;29;20223;-74
2022/08/20 02:08:11;;;;;;;3.00;2.80;;;;;;;21.53;100.00;100236.38;4893067;29;20212;-73
2022/08/20 02:10:37;;;;;;;3.80;3.00;;;;;;;21.52;100.00;100237.31;4894098;29;20187;-74
2022/08/20 02:13:04;;;;;;;3.20;3.00;;;;;;;21.53;100.00;100241.66;4889755;29;20265;-75
2022/08/20 02:15:30;;;;;;;3.50;3.17;;;;;;;21.50;100.00;100243.59;4907472;29;20212;-72
2022/08/20 02:17:56;;;;;;;3.47;3.17;;;;;;;21.48;100.00;100243.69;4891426;29;20240;-72
2022/08/20 02:20:27;;;;;;;3.40;3.10;;;;;;;21.50;100.00;100243.59;4890388;29;20185;-71
2022/08/20 02:22:55;;;;;;;3.53;3.23;;;;;;;21.47;100.00;100248.09;4891861;29;20193;-78
2022/08/20 02:25:24;;;;;;;3.40;3.10;;;;;;;21.44;100.00;100245.63;4891391;29;20225;-75
2022/08/20 02:27:51;;;;;;;3.00;2.80;;;;;;;21.44;100.00;100243.00;4891249;29;20278;-73
2022/08/20 02:30:32;;;;;;;3.27;2.97;;;;;;;21.44;100.00;100243.00;4889900;29;20193;-73
2022/08/20 02:33:02;;;;;;;3.90;3.57;;;;;;;21.43;100.00;100245.72;4893797;29;20204;-74
2022/08/20 02:35:28;;;;;;;3.70;3.40;;;;;;;21.45;100.00;100241.22;4892066;29;20212;-72
2022/08/20 02:37:54;;;;;;;4.13;3.70;;;;;;;21.40;100.00;100244.09;4890333;29;20201;-74
2022/08/20 02:40:22;;;;;;;3.97;3.67;;;;;;;21.40;100.00;100245.91;4888897;29;20255;-75
2022/08/20 02:42:47;;;;;;;3.90;3.60;;;;;;;21.38;100.00;100242.50;4891105;29;20197;-71
2022/08/20 02:45:16;;;;;;;3.23;3.03;;;;;;;21.35;100.00;100237.41;4892643;29;20276;-75
2022/08/20 02:47:44;;;;;;;3.83;3.50;;;;;;;21.32;100.00;100233.16;4906614;29;20185;-74
2022/08/20 02:50:16;;;;;;;3.60;3.40;;;;;;;21.29;100.00;100235.94;4892505;29;20279;-76
2022/08/20 02:52:41;;;;;;;3.83;3.53;;;;;;;21.27;100.00;100235.19;4894522;29;20224;-72
2022/08/20 02:55:08;;;;;;;3.63;3.33;;;;;;;21.25;100.00;100237.88;4894499;29;20607;-70
2022/08/20 02:57:34;;;;;;;3.80;3.50;;;;;;;21.23;100.00;100247.66;4896906;29;20703;-71
2022/08/20 03:00:00;;;;;;;4.10;3.70;;;;;;;21.24;100.00;100240.59;4908325;29;20294;-74
2022/08/20 03:02:25;;;;;;;3.73;3.50;;;;;;;21.23;100.00;100244.16;4891792;29;20192;-72
2022/08/20 03:04:50;;;;;;;4.13;3.83;;;;;;;21.22;100.00;100234.56;4892840;29;20556;-73
2022/08/20 03:07:17;;;;;;;4.10;3.73;;;;;;;21.23;100.00;100237.16;4889882;29;20565;-71
2022/08/20 03:09:42;;;;;;;4.17;3.87;;;;;;;21.22;100.00;100239.84;4907279;29;20666;-69
2022/08/20 03:12:08;;;;;;;3.80;3.50;;;;;;;21.22;100.00;100237.22;4892525;29;20207;-74
2022/08/20 03:14:34;;;;;;;3.80;3.50;;;;;;;21.20;100.00;100234.66;4890309;29;20203;-72
2022/08/20 03:17:00;;;;;;;4.00;3.70;;;;;;;21.20;100.00;100231.16;4895556;29;20212;-72
2022/08/20 03:19:26;;;;;;;4.00;3.70;;;;;;;21.20;100.00;100233.81;4890975;29;20540;-72
2022/08/20 03:21:52;;;;;;;4.53;4.13;;;;;;;21.18;100.00;100228.63;4890336;29;20193;-75
2022/08/20 03:24:17;;;;;;;3.93;3.63;;;;;;;21.19;100.00;100226.84;4906562;29;20235;-74
2022/08/20 03:26:43;;;;;;;3.60;3.40;;;;;;;21.19;100.00;100226.84;4891654;29;20226;-73
2022/08/20 03:29:09;;;;;;;3.67;3.47;;;;;;;21.17;100.00;100219.91;4888931;29;20542;-70
2022/08/20 03:31:34;;;;;;;3.57;3.27;;;;;;;21.18;100.00;100218.09;4893877;29;20660;-71
2022/08/20 03:34:00;;;;;;;4.10;3.80;;;;;;;21.19;100.00;100224.22;4890128;29;20189;-73
2022/08/20 03:36:27;;;;;;;3.53;3.23;;;;;;;21.16;100.00;100218.22;4904438;29;20653;-70
2022/08/20 03:38:54;;;;;;;4.07;3.77;;;;;;;21.15;100.00;100223.53;4890385;29;20244;-73
2022/08/20 03:41:19;;;;;;;4.10;3.80;;;;;;;21.15;100.00;100223.53;4890086;29;20532;-72
2022/08/20 03:43:45;;;;;;;4.37;4.07;;;;;;;21.14;100.00;100224.47;4906398;29;20181;-71
2022/08/20 03:46:10;;;;;;;4.80;4.40;;;;;;;21.15;100.00;100228.78;4890401;29;20632;-74
2022/08/20 03:48:36;;;;;;;4.37;4.07;;;;;;;21.10;100.00;100233.47;4892631;29;20196;-76
2022/08/20 03:51:01;;;;;;;4.00;3.70;;;;;;;21.09;100.00;100234.41;4894776;29;20730;-72
2022/08/20 03:53:30;;;;;;;4.40;4.00;;;;;;;21.05;100.00;100228.44;4905558;29;20516;-72
2022/08/20 03:55:59;;;;;;;4.20;3.90;;;;;;;21.06;100.00;100229.31;4890062;29;20204;-73
2022/08/20 03:58:28;;;;;;;4.43;4.13;;;;;;;21.05;100.00;100228.44;4892926;29;20200;-73
2022/08/20 04:00:55;;;;;;;4.20;3.90;;;;;;;21.04;100.00;100232.00;4892358;29;20224;-76
2022/08/20 04:03:21;;;;;;;4.20;3.90;;;;;;;21.01;100.00;100240.91;4893105;29;20758;-72
2022/08/20 04:05:46;;;;;;;3.67;3.47;;;;;;;21.02;100.00;100232.09;4897080;29;20244;-72
2022/08/20 04:08:17;;;;;;;5.07;4.27;;;;;;;21.02;100.00;100231.25;4899672;29;20193;-73
2022/08/20 04:10:44;;;;;;;4.00;3.70;;;;;;;21.00;100.00;100233.94;4898555;29;20193;-73
2022/08/20 04:13:10;;;;;;;5.00;4.03;;;;;;;21.01;100.00;100242.72;4900698;29;20195;-75
2022/08/20 04:15:36;;;;;;;3.90;3.60;;;;;;;21.00;100.00;100239.22;4913870;29;20235;-74
2022/08/20 04:18:05;;;;;;;4.20;3.80;;;;;;;21.01;100.00;100234.81;4904035;29;20201;-72
2022/08/20 04:20:30;;;;;;;3.87;3.60;;;;;;;21.02;100.00;100234.72;4901882;29;20221;-72
2022/08/20 04:22:56;;;;;;;3.83;3.53;;;;;;;21.01;100.00;100232.19;4907444;29;20199;-72
2022/08/20 04:25:22;;;;;;;4.13;3.83;;;;;;;21.01;100.00;100237.44;4900826;29;20226;-72
2022/08/20 04:27:51;;;;;;;4.00;3.73;;;;;;;21.00;100.00;100231.31;4905514;29;20253;-71
2022/08/20 04:30:19;;;;;;;4.40;4.10;;;;;;;20.98;100.00;100235.81;4903065;29;20185;-72
2022/08/20 04:32:44;;;;;;;3.83;3.60;;;;;;;20.98;100.00;100241.06;4918272;29;20276;-74
2022/08/20 04:35:14;;;;;;;4.50;4.20;;;;;;;20.99;100.00;100241.94;4917854;29;20799;-77
2022/08/20 04:37:40;;;;;;;4.30;4.00;;;;;;;20.99;100.00;100240.16;4907780;29;20192;-76
2022/08/20 04:42:54;;;;;;;4.83;4.53;;;;;;;20.97;100.00;100246.44;4903623;29;20236;-72
2022/08/20 04:45:20;;;;;;;4.03;3.73;;;;;;;20.97;100.00;100247.25;4905009;29;20288;-75
2022/08/20 04:47:46;;;;;;;4.57;4.17;;;;;;;20.95;100.00;100249.13;4907455;29;20201;-72
2022/08/20 04:50:13;;;;;;;5.70;4.30;;;;;;;20.96;100.00;100260.50;4909156;29;20196;-73
2022/08/20 04:52:38;;;;;;;5.00;4.53;;;;;;;20.94;100.00;100262.38;4906718;29;20196;-73
2022/08/20 04:55:05;;;;;;;4.90;4.50;;;;;;;20.92;100.00;100267.72;4907661;29;20738;-72
2022/08/20 04:57:30;;;;;;;4.37;4.07;;;;;;;20.92;100.00;100258.97;4917760;29;20236;-73
2022/08/20 04:59:56;;;;;;;4.00;3.70;;;;;;;20.95;100.00;100258.81;4905497;29;20795;-72
2022/08/20 05:02:21;;;;;;;4.60;4.30;;;;;;;20.95;100.00;100257.00;4905583;29;20207;-71
2022/08/20 05:04:47;;;;;;;4.33;4.00;;;;;;;20.95;100.00;100262.28;4920187;29;20585;-70
2022/08/20 05:07:14;;;;;;;4.33;4.03;;;;;;;20.97;100.00;100270.09;4917279;29;20259;-71
2022/08/20 05:09:41;;;;;;;4.50;4.13;;;;;;;20.99;100.00;100271.72;4918323;29;20216;-74
2022/08/20 05:12:06;;;;;;;4.53;4.17;;;;;;;21.01;100.00;100272.50;4904195;29;20280;-71
2022/08/20 05:14:32;;;;;;;4.50;4.20;;;;;;;21.07;100.00;100267.84;4906619;29;20221;-71
2022/08/20 05:17:01;;;;;;;4.50;4.10;;;;;;;21.10;100.00;100268.53;4905070;29;20346;-71
2022/08/20 05:19:27;;;;;;;4.33;3.97;;;;;;;21.10;100.00;100268.53;4905085;29;20188;-71
2022/08/20 05:21:53;;;;;;;4.70;4.30;;;;;;;21.12;100.00;100269.28;4917519;29;20576;-70
2022/08/20 05:24:20;;;;;;;4.40;4.10;;;;;;;21.15;100.00;100268.25;4905568;29;20232;-73
2022/08/20 05:26:45;;;;;;;4.30;4.00;;;;;;;21.17;100.00;100276.94;4901352;29;20214;-72
2022/08/20 05:29:11;;;;;;;4.50;4.20;;;;;;;21.20;100.00;100276.78;4916658;29;20221;-72
2022/08/20 05:31:38;;;;;;;4.20;3.90;;;;;;;21.22;100.00;100274.03;4899910;29;20209;-72
2022/08/20 05:34:08;;;;;;;4.53;4.10;;;;;;;21.27;100.00;100285.19;4901848;29;20212;-73
2022/08/20 05:36:34;;;;;;;5.17;4.67;;;;;;;21.29;100.00;100284.16;4903159;29;20225;-73
2022/08/20 05:38:59;;;;;;;5.33;4.83;;;;;;;21.31;100.00;100284.09;4904832;29;20212;-71
2022/08/20 05:41:28;;;;;;;4.30;3.97;;;;;;;21.34;100.00;100288.34;4903904;29;20226;-73
2022/08/20 05:43:53;;;;;;;4.10;3.80;;;;;;;21.38;100.00;100287.25;4903028;29;20304;-71
2022/08/20 05:46:18;;;;;;;4.47;4.17;;;;;;;21.47;100.00;100290.22;4904556;29;20310;-72
2022/08/20 05:48:44;;;;;;;4.10;3.80;;;;;;;21.57;100.00;100298.44;4920202;29;20208;-72
2022/08/20 05:51:09;;;;;;;3.87;3.57;;;;;;;21.73;100.00;100297.63;4917857;29;20197;-75
2022/08/20 05:53:36;;;;;;;3.70;3.43;;;;;;;21.88;100.00;100295.94;4903263;29;20196;-74
2022/08/20 05:56:02;;;;;;;4.77;4.37;;;;;;;22.01;100.00;100296.94;4903487;29;20213;-73
2022/08/20 05:58:28;;;;;;;3.83;3.53;;;;;;;22.13;100.00;100298.03;4902282;29;20256;-74
2022/08/20 06:00:54;;;;;;;4.17;3.77;;;;;;;22.27;100.00;100302.50;4903479;29;20212;-71
2022/08/20 06:06:05;;;;;;;4.40;4.00;;;;;;;22.36;100.00;100304.63;4908067;29;20299;-77
2022/08/20 06:08:31;;;;;;;4.13;3.83;;;;;;;22.46;100.00;100302.28;4913647;29;20211;-76
2022/08/20 06:10:56;;;;;;;4.10;3.80;;;;;;;22.61;100.00;100302.38;4910181;29;20216;-74
2022/08/20 06:13:22;;;;;;;4.83;4.37;;;;;;;22.73;100.00;100306.91;4913563;29;20200;-74
2022/08/20 06:15:48;;;;;;;4.30;4.00;;;;;;;22.81;100.00;100309.91;4929581;29;20324;-74
2022/08/20 06:18:14;;;;;;;4.33;3.93;;;;;;;22.89;100.00;100300.69;4927689;29;20291;-74
2022/08/20 06:20:40;;;;;;;3.93;3.63;;;;;;;22.96;100.00;100300.25;4913603;29;20224;-74
2022/08/20 06:23:06;;;;;;;3.97;3.67;;;;;;;23.03;100.00;100299.84;4914564;29;20219;-73
2022/08/20 06:25:33;;;;;;;3.70;3.40;;;;;;;23.07;100.00;100294.28;4902184;29;20252;-73
2022/08/20 06:27:59;;;;;;;4.73;3.93;;;;;;;23.15;100.00;100304.38;4906321;29;20200;-75
2022/08/20 06:30:24;;;;;;;3.63;3.33;;;;;;;23.27;100.00;100306.31;4920638;29;20201;-72
2022/08/20 06:32:50;;;;;;;3.90;3.60;;;;;;;23.39;99.38;100302.03;4905406;29;20216;-72
2022/08/20 06:35:16;;;;;;;4.93;4.17;;;;;;;23.65;98.53;100299.56;4908248;29;20276;-74
2022/08/20 06:37:41;;;;;;;3.90;3.60;;;;;;;23.98;97.50;100290.41;4900530;29;20197;-71
2022/08/20 06:40:07;;;;;;;3.60;3.30;;;;;;;24.80;94.98;100300.00;4902348;29;20593;-71
2022/08/20 06:42:33;;;;;;;3.50;3.30;;;;;;;25.90;89.98;100291.44;4907168;29;20358;-74
2022/08/20 06:44:59;;;;;;;3.40;3.03;;;;;;;27.42;84.58;100286.09;4913474;29;20224;-73
2022/08/20 06:47:24;;;;;;;3.00;2.80;;;;;;;28.66;80.63;100286.59;4913667;28;20199;-75
2022/08/20 06:49:50;;;;;;;2.90;2.70;;;;;;;29.60;78.42;100282.94;4908545;29;20191;-72
2022/08/20 06:52:15;;;;;;;3.03;2.73;;;;;;;29.88;76.80;100287.59;4908232;29;20196;-73
2022/08/20 06:54:42;;;;;;;2.87;2.57;;;;;;;29.45;78.09;100298.47;4907007;29;20318;-74
2022/08/20 06:57:07;;;;;;;2.57;2.37;;;;;;;28.79;79.71;100297.09;4907826;29;20244;-74
2022/08/20 06:59:32;;;;;;;2.50;2.30;;;;;;;28.14;81.26;100302.50;4909516;29;20256;-77
2022/08/20 07:01:58;;;;;;;2.60;2.40;;;;;;;27.64;82.22;100306.50;4921788;29;21076;-73
2022/08/20 07:04:24;;;;;;;4.67;2.50;;;;;;;27.15;83.25;100308.56;4921866;29;20292;-74
2022/08/20 07:06:51;;;;;;;2.43;2.27;;;;;;;26.74;84.77;100307.31;4903312;29;20217;-73
2022/08/20 07:09:18;;;;;;;2.23;2.10;;;;;;;26.47;85.71;100303.16;4924801;29;20191;-72
2022/08/20 07:11:43;;;;;;;2.57;2.37;;;;;;;26.19;86.33;100307.88;4910366;29;20185;-75
2022/08/20 07:14:10;;;;;;;2.30;2.20;;;;;;;25.92;87.15;100316.88;4908534;29;20185;-72
2022/08/20 07:16:36;;;;;;;2.53;2.33;;;;;;;25.63;88.19;100317.19;4913448;29;20204;-73
2022/08/20 07:19:02;;;;;;;2.20;2.10;;;;;;;25.39;89.07;100320.63;4915405;29;20207;-73
2022/08/20 07:21:29;;;;;;;2.50;2.30;;;;;;;25.22;89.89;100327.09;4911273;29;20191;-73
2022/08/20 07:23:54;;;;;;;3.00;2.20;;;;;;;25.06;90.57;100326.47;4910273;29;21215;-73
2022/08/20 07:26:21;;;;;;;2.50;2.30;;;;;;;24.94;91.04;100325.53;4913218;29;20255;-73
2022/08/20 07:28:47;;;;;;;2.47;2.30;;;;;;;24.75;91.80;100328.56;4925935;29;20188;-73
2022/08/20 07:33:56;;;;;;;2.20;2.00;;;;;;;24.54;92.55;100326.44;4912901;29;20207;-73
2022/08/20 07:36:22;;;;;;;2.40;2.30;;;;;;;24.48;92.68;100322.41;4911261;29;20221;-71
2022/08/20 07:38:49;;;;;;;2.33;2.13;;;;;;;24.49;93.06;100336.47;4910823;29;20180;-71
2022/08/20 07:41:15;;;;;;;2.30;2.10;;;;;;;24.56;93.09;100324.53;4906741;29;20205;-72
2022/08/20 07:43:44;;;;;;;2.40;2.13;;;;;;;24.69;92.98;100326.34;4906884;29;20185;-72
2022/08/20 07:46:10;;;;;;;2.07;1.93;;;;;;;24.76;92.68;100335.56;4912675;29;20731;-75
2022/08/20 07:48:38;;;;;;;2.43;2.23;;;;;;;24.74;92.72;100337.47;4907165;29;20257;-72
2022/08/20 07:51:06;;;;;;;2.20;2.00;;;;;;;24.57;93.19;100334.16;4908429;29;20703;-73
2022/08/20 07:53:33;;;;;;;2.43;2.27;;;;;;;24.40;93.70;100345.84;4930020;29;20204;-73
2022/08/20 07:55:59;;;;;;;2.57;2.30;;;;;;;24.26;94.40;100344.13;4915316;29;20236;-71
2022/08/20 07:58:25;;;;;;;2.40;2.20;;;;;;;24.15;94.94;100343.97;4912626;29;20257;-74
2022/08/20 08:00:51;;;;;;;2.63;2.00;;;;;;;24.04;95.17;100348.16;4927898;29;20196;-71
2022/08/20 08:03:16;;;;;;;2.10;2.00;;;;;;;23.99;95.76;100354.69;4908507;29;20196;-72
2022/08/20 08:05:44;;;;;;;2.67;2.03;;;;;;;23.97;95.85;100354.81;4917743;29;20235;-73
2022/08/20 08:08:14;;;;;;;2.10;2.00;;;;;;;23.92;96.35;100363.91;4904319;29;20260;-70
2022/08/20 08:10:41;;;;;;;2.33;2.20;;;;;;;23.84;97.38;100361.78;4904654;29;20193;-72
2022/08/20 08:13:10;;;;;;;2.63;2.43;;;;;;;23.78;98.13;100368.28;4904538;29;20189;-71
2022/08/20 08:15:40;;;;;;;2.23;1.97;;;;;;;23.77;98.32;100363.97;4905879;29;20257;-70
2022/08/20 08:18:14;;;;;;;2.40;2.20;;;;;;;23.86;98.25;100368.69;4903872;29;20208;-74
2022/08/20 08:20:43;;;;;;;2.30;2.10;;;;;;;23.95;98.08;100366.38;4905493;29;20184;-73
2022/08/20 08:23:10;;;;;;;2.67;2.00;;;;;;;23.96;97.84;100365.44;4916712;29;20197;-73
2022/08/20 08:25:38;;;;;;;1.97;1.77;;;;;;;23.91;97.88;100368.38;4906643;29;20319;-73
2022/08/20 08:28:04;;;;;;;2.30;2.10;;;;;;;23.85;98.11;100363.47;4910621;29;20203;-74
2022/08/20 08:30:30;;;;;;;2.43;2.23;;;;;;;23.78;99.23;100365.66;4904388;29;20197;-72
2022/08/20 08:35:39;;;;;;;2.40;2.20;;;;;;;23.83;99.95;100365.34;4909396;29;20235;-75
2022/08/20 08:38:04;;;;;;;2.30;2.10;;;;;;;23.92;99.60;100359.50;4906478;29;20201;-72
2022/08/20 08:40:31;;;;;;;2.27;1.87;;;;;;;24.03;99.02;100362.31;4909555;29;20204;-74
2022/08/20 08:43:01;;;;;;;1.97;1.80;;;;;;;24.14;98.16;100356.34;4899871;29;20213;-73
2022/08/20 08:45:37;;;;;;;2.93;2.20;;;;;;;24.20;97.69;100353.28;4916826;29;20697;-73
2022/08/20 08:48:03;;;;;;;2.10;1.90;;;;;;;24.25;97.30;100363.59;4900391;29;20208;-72
2022/08/20 08:50:32;;;;;;;2.00;1.90;;;;;;;24.25;96.64;100362.72;4915332;29;20281;-76
2022/08/20 08:53:00;;;;;;;2.47;1.87;;;;;;;24.18;97.22;100359.63;4919315;29;20720;-75
2022/08/20 08:55:28;;;;;;;2.33;1.63;;;;;;;24.14;97.28;100366.06;4901830;29;20215;-74
2022/08/20 08:57:58;;;;;;;1.90;1.80;;;;;;;24.05;97.65;100371.00;4902822;29;20220;-73
2022/08/20 09:00:27;;;;;;;1.87;1.77;;;;;;;24.05;97.73;100367.50;4899002;29;20189;-71
2022/08/20 09:03:11;;;;;;;2.13;2.03;;;;;;;24.10;98.19;100365.41;4911019;29;20185;-73
2022/08/20 09:05:49;;;;;;;1.70;1.60;;;;;;;24.21;98.21;100370.03;4921040;29;20227;-73
2022/08/20 09:08:22;;;;;;;1.97;1.67;;;;;;;24.28;97.69;100366.00;4907899;29;20217;-74
2022/08/20 09:10:47;;;;;;;1.60;1.50;;;;;;;24.33;97.16;100371.84;4906405;29;20254;-72
2022/08/20 09:13:12;;;;;;;2.00;1.77;;;;;;;24.37;97.45;100374.31;4907336;29;20220;-73
2022/08/20 09:15:38;;;;;;;1.80;1.30;;;;;;;24.39;97.97;100372.41;4905538;29;20212;-75
2022/08/20 09:18:03;;;;;;;1.40;1.30;;;;;;;24.33;97.91;100374.50;4927265;29;20196;-72
2022/08/20 09:20:29;;;;;;;1.93;1.30;;;;;;;24.31;97.79;100378.19;4903371;29;20213;-72
2022/08/20 09:22:55;;;;;;;1.50;1.40;;;;;;;24.35;97.28;100377.91;4904200;29;20277;-73
2022/08/20 09:25:20;;;;;;;1.30;1.20;;;;;;;24.51;96.59;100384.81;4904539;29;20242;-72
2022/08/20 09:27:46;;;;;;;1.43;1.33;;;;;;;24.77;95.81;100387.53;4920827;29;20189;-73
2022/08/20 09:30:13;;;;;;;1.23;1.10;;;;;;;25.10;94.52;100379.13;4906185;29;20215;-72
2022/08/20 09:32:42;;;;;;;1.40;1.30;;;;;;;25.40;92.93;100377.97;4905565;29;20296;-75
2022/08/20 09:35:09;;;;;;;1.50;1.40;;;;;;;25.78;91.77;100384.16;4901977;29;20231;-73
2022/08/20 09:37:34;;;;;;;1.20;1.10;;;;;;;26.15;91.00;100378.03;4902120;29;20204;-72
2022/08/20 09:40:00;;;;;;;1.10;1.00;;;;;;;26.51;90.40;100362.97;4904839;29;20193;-72
2022/08/20 09:42:29;;;;;;;1.47;1.37;;;;;;;26.90;89.14;100366.28;4904716;29;20217;-71
2022/08/20 09:44:54;;;;;;;1.47;1.27;;;;;;;27.36;87.16;100364.47;4907916;29;20217;-74
2022/08/20 09:47:20;;;;;;;1.83;1.73;;;;;;;27.77;85.49;100362.19;4918503;29;20242;-74
2022/08/20 09:49:46;;;;;;;1.63;1.50;;;;;;;28.03;84.00;100353.06;4920575;29;20189;-72
2022/08/20 09:52:21;;;;;;;1.60;1.50;;;;;;;28.21;83.32;100340.91;4905551;29;20207;-72
2022/08/20 09:54:47;;;;;;;1.50;1.30;;;;;;;28.29;82.56;100340.28;4920949;29;20696;-73
2022/08/20 09:57:14;;;;;;;1.37;1.27;;;;;;;28.28;82.76;100331.47;4906534;29;20207;-72
2022/08/20 09:59:39;;;;;;;1.80;1.70;;;;;;;28.37;81.71;100332.50;4904577;29;20189;-72
2022/08/20 10:02:05;;;;;;;1.70;1.60;;;;;;;28.48;82.30;100338.75;4905443;29;20247;-71
2022/08/20 10:04:30;;;;;;;1.50;1.40;;;;;;;28.43;82.40;100336.47;4906374;29;20236;-72
2022/08/20 10:06:55;;;;;;;1.50;1.40;;;;;;;28.34;82.01;100342.59;4912042;29;20209;-73
2022/08/20 10:09:21;;;;;;;1.70;1.60;;;;;;;28.11;80.85;100330.22;4910410;29;20205;-72
2022/08/20 10:11:46;;;;;;;1.87;1.77;;;;;;;27.87;81.83;100340.16;4903473;29;20654;-71
2022/08/20 10:14:12;;;;;;;1.47;1.37;;;;;;;27.68;82.43;100345.16;4901810;29;20185;-71
2022/08/20 10:16:37;;;;;;;1.60;1.50;;;;;;;27.50;83.16;100339.50;4902253;29;20213;-72
2022/08/20 10:19:04;;;;;;;1.60;1.50;;;;;;;27.27;83.57;100341.31;4905813;29;20716;-72
2022/08/20 10:21:31;;;;;;;1.60;1.50;;;;;;;27.08;84.05;100333.91;4906939;29;20189;-73
2022/08/20 10:23:57;;;;;;;1.50;1.40;;;;;;;26.93;84.92;100347.41;4901731;29;20204;-71
2022/08/20 10:26:22;;;;;;;1.50;1.40;;;;;;;26.73;86.75;100342.78;4903058;29;20330;-73
2022/08/20 10:28:47;;;;;;;2.17;1.63;;;;;;;26.44;90.53;100348.50;4906468;29;20261;-74
2022/08/20 10:31:13;;;;;;;2.07;1.70;;;;;;;25.96;94.78;100352.81;4896211;29;20662;-76
2022/08/20 10:33:39;;;;;;;2.90;2.00;;;;;;;25.50;97.70;100354.31;4892519;29;20189;-73
2022/08/20 10:36:07;;;;;;;2.50;2.10;;;;;;;25.18;99.26;100352.13;4901875;29;20311;-74
2022/08/20 10:38:32;;;;;;;2.00;1.90;;;;;;;25.04;100.00;100350.41;4893780;29;20193;-74
2022/08/20 10:40:57;;;;;;;2.47;2.10;;;;;;;24.95;100.00;100351.91;4891906;29;20216;-74
2022/08/20 10:43:23;;;;;;;2.60;1.67;;;;;;;24.95;100.00;100351.91;4892274;29;20189;-75
2022/08/20 10:45:50;;;;;;;2.43;2.07;;;;;;;24.94;100.00;100357.31;4905823;29;20544;-73
2022/08/20 10:48:15;;;;;;;2.17;1.97;;;;;;;24.94;100.00;100354.66;4891207;29;20308;-73
2022/08/20 10:50:41;;;;;;;2.80;1.67;;;;;;;24.99;100.00;100352.53;4904342;29;20189;-73
2022/08/20 10:53:06;;;;;;;2.47;2.00;;;;;;;25.03;99.75;100348.72;4893919;29;20307;-73
2022/08/20 10:55:31;;;;;;;1.97;1.87;;;;;;;25.17;99.61;100352.22;4890275;29;20209;-73
2022/08/20 10:57:57;;;;;;;2.10;2.00;;;;;;;25.36;99.15;100346.47;4904006;29;20227;-72
2022/08/20 11:00:22;;;;;;;1.70;1.60;;;;;;;25.62;98.55;100352.59;4894628;29;20284;-73
2022/08/20 11:02:47;;;;;;;1.63;1.53;;;;;;;25.91;97.82;100340.88;4900280;29;20252;-71
2022/08/20 11:05:13;;;;;;;1.83;1.73;;;;;;;26.23;96.85;100346.47;4893926;28;20236;-74
2022/08/20 11:07:41;;;;;;;1.70;1.60;;;;;;;26.56;95.66;100347.56;4912625;29;20192;-73
2022/08/20 11:10:08;;;;;;;2.03;1.60;;;;;;;26.84;94.41;100344.66;4893677;29;20206;-74
2022/08/20 11:12:33;;;;;;;1.60;1.50;;;;;;;27.12;93.71;100342.50;4894392;29;20284;-74
2022/08/20 11:14:59;;;;;;;1.80;1.70;;;;;;;27.45;91.86;100339.03;4892960;29;20189;-74
2022/08/20 11:17:28;;;;;;;1.50;1.40;;;;;;;27.80;90.13;100329.19;4892789;29;20621;-75
2022/08/20 11:19:55;;;;;;;1.57;1.30;;;;;;;28.02;88.86;100320.28;4892247;29;20197;-74
2022/08/20 11:22:20;;;;;;;2.33;1.27;;;;;;;28.17;87.97;100318.22;4906692;29;20193;-73
2022/08/20 11:24:46;;;;;;;1.30;1.20;;;;;;;28.37;87.47;100319.22;4891463;29;20219;-74
2022/08/20 11:27:22;;;;;;;1.10;1.00;;;;;;;28.59;85.46;100310.25;4892475;29;20204;-74
2022/08/20 11:29:47;;;;;;;1.07;1.07;;;;;;;28.60;84.41;100311.94;4891724;29;20215;-73